sensor_id;sensor_type;location;lat;lon;timestamp;temperature;humidity
57242;DHT22;43095;53.302;5.786;2022-11-20T00:01:20;1.20;99.90
57242;DHT22;43095;53.302;5.786;2022-11-20T00:03:48;1.30;99.90
57242;DHT22;43095;53.302;5.786;2022-11-20T00:06:17;1.20;99.90
57242;DHT22;43095;53.302;5.786;2022-11-20T00:08:45;1.10;99.90
57242;DHT22;43095;53.302;5.786;2022-11-20T00:11:19;1.10;99.90
57242;DHT22;43095;53.302;5.786;2022-11-20T00:13:49;1.20;99.90
57242;DHT22;43095;53.302;5.786;2022-11-20T00:16:18;1.20;99.90
57242;DHT22;43095;53.302;5.786;2022-11-20T00:18:46;1.20;99.90
57242;DHT22;43095;53.302;5.786;2022-11-20T00:21:22;1.20;99.90
57242;DHT22;43095;53.302;5.786;2022-11-20T00:23:51;1.20;99.90
57242;DHT22;43095;53.302;5.786;2022-11-20T00:26:22;1.20;99.90
57242;DHT22;43095;53.302;5.786;2022-11-20T00:28:57;1.20;99.90
57242;DHT22;43095;53.302;5.786;2022-11-20T00:31:25;1.20;99.90
57242;DHT22;43095;53.302;5.786;2022-11-20T00:33:53;1.10;99.90
57242;DHT22;43095;53.302;5.786;2022-11-20T00:36:26;1.10;99.90
57242;DHT22;43095;53.302;5.786;2022-11-20T00:38:55;1.10;99.90
57242;DHT22;43095;53.302;5.786;2022-11-20T00:41:23;1.10;99.90
57242;DHT22;43095;53.302;5.786;2022-11-20T00:43:52;1.10;99.90
57242;DHT22;43095;53.302;5.786;2022-11-20T00:46:22;1.20;99.90
57242;DHT22;43095;53.302;5.786;2022-11-20T00:48:49;1.20;99.90
57242;DHT22;43095;53.302;5.786;2022-11-20T00:51:19;1.20;99.90
57242;DHT22;43095;53.302;5.786;2022-11-20T00:53:47;1.30;99.90
57242;DHT22;43095;53.302;5.786;2022-11-20T00:56:16;1.10;99.90
57242;DHT22;43095;53.302;5.786;2022-11-20T00:58:45;1.20;99.90
57242;DHT22;43095;53.302;5.786;2022-11-20T01:01:16;1.10;99.90
57242;DHT22;43095;53.302;5.786;2022-11-20T01:03:48;1.20;99.90
57242;DHT22;43095;53.302;5.786;2022-11-20T01:06:18;1.10;99.90
57242;DHT22;43095;53.302;5.786;2022-11-20T01:08:46;1.10;99.90
57242;DHT22;43095;53.302;5.786;2022-11-20T01:11:19;1.10;99.90
57242;DHT22;43095;53.302;5.786;2022-11-20T01:13:48;1.10;99.90
57242;DHT22;43095;53.302;5.786;2022-11-20T01:16:19;1.10;99.90
57242;DHT22;43095;53.302;5.786;2022-11-20T01:18:48;1.10;99.90
57242;DHT22;43095;53.302;5.786;2022-11-20T01:21:18;1.00;99.90
57242;DHT22;43095;53.302;5.786;2022-11-20T01:23:47;1.10;99.90
57242;DHT22;43095;53.302;5.786;2022-11-20T01:26:20;1.10;99.90
57242;DHT22;43095;53.302;5.786;2022-11-20T01:28:48;1.10;99.90
57242;DHT22;43095;53.302;5.786;2022-11-20T01:31:21;1.10;99.90
57242;DHT22;43095;53.302;5.786;2022-11-20T01:33:49;1.10;99.90
57242;DHT22;43095;53.302;5.786;2022-11-20T01:36:19;1.10;99.90
57242;DHT22;43095;53.302;5.786;2022-11-20T01:38:47;1.10;99.90
57242;DHT22;43095;53.302;5.786;2022-11-20T01:41:15;1.10;99.90
57242;DHT22;43095;53.302;5.786;2022-11-20T01:44:02;1.10;99.90
57242;DHT22;43095;53.302;5.786;2022-11-20T01:46:31;1.10;99.90
57242;DHT22;43095;53.302;5.786;2022-11-20T01:49:16;1.10;99.90
57242;DHT22;43095;53.302;5.786;2022-11-20T01:51:50;1.20;99.90
57242;DHT22;43095;53.302;5.786;2022-11-20T01:54:23;1.20;99.90
57242;DHT22;43095;53.302;5.786;2022-11-20T01:56:54;1.00;99.90
57242;DHT22;43095;53.302;5.786;2022-11-20T01:59:24;1.10;99.90
57242;DHT22;43095;53.302;5.786;2022-11-20T02:01:53;1.20;99.90
57242;DHT22;43095;53.302;5.786;2022-11-20T02:04:20;1.20;99.90
57242;DHT22;43095;53.302;5.786;2022-11-20T02:06:58;1.10;99.90
57242;DHT22;43095;53.302;5.786;2022-11-20T02:09:27;1.10;99.90
57242;DHT22;43095;53.302;5.786;2022-11-20T02:12:01;1.00;99.90
57242;DHT22;43095;53.302;5.786;2022-11-20T02:14:28;1.00;99.90
57242;DHT22;43095;53.302;5.786;2022-11-20T02:16:56;1.00;99.90
57242;DHT22;43095;53.302;5.786;2022-11-20T02:19:28;1.10;99.90
57242;DHT22;43095;53.302;5.786;2022-11-20T02:22:00;1.00;99.90
57242;DHT22;43095;53.302;5.786;2022-11-20T02:24:29;1.00;99.90
57242;DHT22;43095;53.302;5.786;2022-11-20T02:27:06;1.00;99.90
57242;DHT22;43095;53.302;5.786;2022-11-20T02:29:42;1.10;99.90
57242;DHT22;43095;53.302;5.786;2022-11-20T02:34:48;1.00;99.90
57242;DHT22;43095;53.302;5.786;2022-11-20T02:37:16;1.00;99.90
57242;DHT22;43095;53.302;5.786;2022-11-20T02:39:48;1.10;99.90
57242;DHT22;43095;53.302;5.786;2022-11-20T02:42:16;1.10;99.90
57242;DHT22;43095;53.302;5.786;2022-11-20T02:44:43;1.20;99.90
57242;DHT22;43095;53.302;5.786;2022-11-20T02:47:10;1.10;99.90
57242;DHT22;43095;53.302;5.786;2022-11-20T02:49:38;1.10;99.90
57242;DHT22;43095;53.302;5.786;2022-11-20T02:52:05;1.30;99.90
57242;DHT22;43095;53.302;5.786;2022-11-20T02:54:32;1.20;99.90
57242;DHT22;43095;53.302;5.786;2022-11-20T02:56:59;1.20;99.90
57242;DHT22;43095;53.302;5.786;2022-11-20T02:59:27;1.20;99.90
57242;DHT22;43095;53.302;5.786;2022-11-20T03:01:54;1.30;99.90
57242;DHT22;43095;53.302;5.786;2022-11-20T03:04:21;1.30;99.90
57242;DHT22;43095;53.302;5.786;2022-11-20T03:06:48;1.20;99.90
57242;DHT22;43095;53.302;5.786;2022-11-20T03:09:15;1.30;99.90
57242;DHT22;43095;53.302;5.786;2022-11-20T03:11:42;1.30;99.90
57242;DHT22;43095;53.302;5.786;2022-11-20T03:14:09;1.30;99.90
57242;DHT22;43095;53.302;5.786;2022-11-20T03:16:37;1.30;99.90
57242;DHT22;43095;53.302;5.786;2022-11-20T03:19:04;1.40;99.90
57242;DHT22;43095;53.302;5.786;2022-11-20T03:21:33;1.30;99.90
57242;DHT22;43095;53.302;5.786;2022-11-20T03:24:01;1.30;99.90
57242;DHT22;43095;53.302;5.786;2022-11-20T03:26:28;1.20;99.90
57242;DHT22;43095;53.302;5.786;2022-11-20T03:29:01;1.20;99.90
57242;DHT22;43095;53.302;5.786;2022-11-20T03:31:31;1.40;99.90
57242;DHT22;43095;53.302;5.786;2022-11-20T03:33:59;1.20;99.90
57242;DHT22;43095;53.302;5.786;2022-11-20T03:36:27;1.20;99.90
57242;DHT22;43095;53.302;5.786;2022-11-20T03:38:55;1.20;99.90
57242;DHT22;43095;53.302;5.786;2022-11-20T03:41:29;1.10;99.90
57242;DHT22;43095;53.302;5.786;2022-11-20T03:44:01;1.10;99.90
57242;DHT22;43095;53.302;5.786;2022-11-20T03:46:29;1.10;99.90
57242;DHT22;43095;53.302;5.786;2022-11-20T03:48:57;1.10;99.90
57242;DHT22;43095;53.302;5.786;2022-11-20T03:51:26;1.00;99.90
57242;DHT22;43095;53.302;5.786;2022-11-20T03:53:55;1.20;99.90
57242;DHT22;43095;53.302;5.786;2022-11-20T03:56:28;1.10;99.90
57242;DHT22;43095;53.302;5.786;2022-11-20T03:58:56;1.00;99.90
57242;DHT22;43095;53.302;5.786;2022-11-20T04:01:32;1.00;99.90
57242;DHT22;43095;53.302;5.786;2022-11-20T04:04:00;1.00;99.90
57242;DHT22;43095;53.302;5.786;2022-11-20T04:06:30;1.00;99.90
57242;DHT22;43095;53.302;5.786;2022-11-20T04:08:59;0.90;99.90
57242;DHT22;43095;53.302;5.786;2022-11-20T04:11:29;0.80;99.90
57242;DHT22;43095;53.302;5.786;2022-11-20T04:13:59;0.80;99.90
57242;DHT22;43095;53.302;5.786;2022-11-20T04:16:29;0.80;99.90
57242;DHT22;43095;53.302;5.786;2022-11-20T04:18:59;0.70;99.90
57242;DHT22;43095;53.302;5.786;2022-11-20T04:21:27;0.70;99.90
57242;DHT22;43095;53.302;5.786;2022-11-20T04:23:55;0.70;99.90
57242;DHT22;43095;53.302;5.786;2022-11-20T04:26:24;0.60;99.90
57242;DHT22;43095;53.302;5.786;2022-11-20T04:28:52;0.60;99.90
57242;DHT22;43095;53.302;5.786;2022-11-20T04:31:21;0.60;99.90
57242;DHT22;43095;53.302;5.786;2022-11-20T04:33:49;0.60;99.90
57242;DHT22;43095;53.302;5.786;2022-11-20T04:38:45;0.50;99.90
57242;DHT22;43095;53.302;5.786;2022-11-20T04:41:17;0.40;99.90
57242;DHT22;43095;53.302;5.786;2022-11-20T04:43:54;0.40;99.90
57242;DHT22;43095;53.302;5.786;2022-11-20T04:46:27;0.30;99.90
57242;DHT22;43095;53.302;5.786;2022-11-20T04:48:54;0.30;99.90
57242;DHT22;43095;53.302;5.786;2022-11-20T04:51:22;0.30;99.90
57242;DHT22;43095;53.302;5.786;2022-11-20T04:53:49;0.30;99.90
57242;DHT22;43095;53.302;5.786;2022-11-20T04:56:17;0.30;99.90
57242;DHT22;43095;53.302;5.786;2022-11-20T04:58:44;0.30;99.90
57242;DHT22;43095;53.302;5.786;2022-11-20T05:01:12;0.30;99.90
57242;DHT22;43095;53.302;5.786;2022-11-20T05:03:41;0.30;99.90
57242;DHT22;43095;53.302;5.786;2022-11-20T05:06:13;0.30;99.90
57242;DHT22;43095;53.302;5.786;2022-11-20T05:08:41;0.30;99.90
57242;DHT22;43095;53.302;5.786;2022-11-20T05:11:11;0.30;99.90
57242;DHT22;43095;53.302;5.786;2022-11-20T05:13:38;0.20;99.90
57242;DHT22;43095;53.302;5.786;2022-11-20T05:16:08;0.20;99.90
57242;DHT22;43095;53.302;5.786;2022-11-20T05:18:36;0.20;99.90
57242;DHT22;43095;53.302;5.786;2022-11-20T05:21:04;0.20;99.90
57242;DHT22;43095;53.302;5.786;2022-11-20T05:23:32;0.20;99.90
57242;DHT22;43095;53.302;5.786;2022-11-20T05:26:00;0.20;99.90
57242;DHT22;43095;53.302;5.786;2022-11-20T05:28:29;0.20;99.90
57242;DHT22;43095;53.302;5.786;2022-11-20T05:31:03;0.20;99.90
57242;DHT22;43095;53.302;5.786;2022-11-20T05:33:30;0.20;99.90
57242;DHT22;43095;53.302;5.786;2022-11-20T05:36:01;0.30;99.90
57242;DHT22;43095;53.302;5.786;2022-11-20T05:38:29;0.40;99.90
57242;DHT22;43095;53.302;5.786;2022-11-20T05:41:03;0.30;99.90
57242;DHT22;43095;53.302;5.786;2022-11-20T05:43:34;0.40;99.90
57242;DHT22;43095;53.302;5.786;2022-11-20T05:46:03;0.40;99.90
57242;DHT22;43095;53.302;5.786;2022-11-20T05:48:31;0.40;99.90
57242;DHT22;43095;53.302;5.786;2022-11-20T05:51:00;0.40;99.90
57242;DHT22;43095;53.302;5.786;2022-11-20T05:53:28;0.50;99.90
57242;DHT22;43095;53.302;5.786;2022-11-20T05:56:07;0.70;99.90
57242;DHT22;43095;53.302;5.786;2022-11-20T05:58:35;0.50;99.90
57242;DHT22;43095;53.302;5.786;2022-11-20T06:01:07;0.50;99.90
57242;DHT22;43095;53.302;5.786;2022-11-20T06:03:34;0.50;99.90
57242;DHT22;43095;53.302;5.786;2022-11-20T06:06:02;0.50;99.90
57242;DHT22;43095;53.302;5.786;2022-11-20T06:08:30;0.50;99.90
57242;DHT22;43095;53.302;5.786;2022-11-20T06:10:57;0.50;99.90
57242;DHT22;43095;53.302;5.786;2022-11-20T06:13:25;0.60;99.90
57242;DHT22;43095;53.302;5.786;2022-11-20T06:15:53;0.60;99.90
57242;DHT22;43095;53.302;5.786;2022-11-20T06:18:20;0.60;99.90
57242;DHT22;43095;53.302;5.786;2022-11-20T06:20:47;0.50;99.90
57242;DHT22;43095;53.302;5.786;2022-11-20T06:23:14;0.40;99.90
57242;DHT22;43095;53.302;5.786;2022-11-20T06:25:42;0.40;99.90
57242;DHT22;43095;53.302;5.786;2022-11-20T06:28:09;0.30;99.90
57242;DHT22;43095;53.302;5.786;2022-11-20T06:30:37;0.30;99.90
57242;DHT22;43095;53.302;5.786;2022-11-20T06:33:04;0.30;99.90
57242;DHT22;43095;53.302;5.786;2022-11-20T06:35:31;0.30;99.90
57242;DHT22;43095;53.302;5.786;2022-11-20T06:37:58;0.20;99.90
57242;DHT22;43095;53.302;5.786;2022-11-20T06:40:25;0.30;99.90
57242;DHT22;43095;53.302;5.786;2022-11-20T06:42:54;0.20;99.90
57242;DHT22;43095;53.302;5.786;2022-11-20T06:45:21;0.20;99.90
57242;DHT22;43095;53.302;5.786;2022-11-20T06:47:48;0.20;99.90
57242;DHT22;43095;53.302;5.786;2022-11-20T06:50:15;0.10;99.90
57242;DHT22;43095;53.302;5.786;2022-11-20T06:52:42;0.10;99.90
57242;DHT22;43095;53.302;5.786;2022-11-20T06:55:09;0.10;99.90
57242;DHT22;43095;53.302;5.786;2022-11-20T06:57:37;0.10;99.90
57242;DHT22;43095;53.302;5.786;2022-11-20T07:00:04;0.10;99.90
57242;DHT22;43095;53.302;5.786;2022-11-20T07:02:31;0.10;99.90
57242;DHT22;43095;53.302;5.786;2022-11-20T07:04:59;0.10;99.90
57242;DHT22;43095;53.302;5.786;2022-11-20T07:07:26;0.00;99.90
57242;DHT22;43095;53.302;5.786;2022-11-20T07:09:53;0.10;99.90
57242;DHT22;43095;53.302;5.786;2022-11-20T07:12:21;0.10;99.90
57242;DHT22;43095;53.302;5.786;2022-11-20T07:14:48;0.10;99.90
57242;DHT22;43095;53.302;5.786;2022-11-20T07:17:15;0.20;99.90
57242;DHT22;43095;53.302;5.786;2022-11-20T07:19:42;0.20;99.90
57242;DHT22;43095;53.302;5.786;2022-11-20T07:22:09;0.30;99.90
57242;DHT22;43095;53.302;5.786;2022-11-20T07:24:36;0.40;99.90
57242;DHT22;43095;53.302;5.786;2022-11-20T07:27:10;0.40;99.90
57242;DHT22;43095;53.302;5.786;2022-11-20T07:29:37;0.40;99.90
57242;DHT22;43095;53.302;5.786;2022-11-20T07:32:04;0.40;99.90
57242;DHT22;43095;53.302;5.786;2022-11-20T07:34:31;0.50;99.90
57242;DHT22;43095;53.302;5.786;2022-11-20T07:36:58;0.40;99.90
57242;DHT22;43095;53.302;5.786;2022-11-20T07:39:25;0.40;99.90
57242;DHT22;43095;53.302;5.786;2022-11-20T07:41:52;0.40;99.90
57242;DHT22;43095;53.302;5.786;2022-11-20T07:44:20;0.40;99.90
57242;DHT22;43095;53.302;5.786;2022-11-20T07:46:47;0.40;99.90
57242;DHT22;43095;53.302;5.786;2022-11-20T07:49:14;0.30;99.90
57242;DHT22;43095;53.302;5.786;2022-11-20T07:51:41;0.50;99.90
57242;DHT22;43095;53.302;5.786;2022-11-20T07:54:08;0.40;99.90
57242;DHT22;43095;53.302;5.786;2022-11-20T07:56:35;0.40;99.90
57242;DHT22;43095;53.302;5.786;2022-11-20T07:59:03;0.40;99.90
57242;DHT22;43095;53.302;5.786;2022-11-20T08:01:30;0.40;99.90
57242;DHT22;43095;53.302;5.786;2022-11-20T08:03:57;0.40;99.90
57242;DHT22;43095;53.302;5.786;2022-11-20T08:06:24;0.50;99.90
57242;DHT22;43095;53.302;5.786;2022-11-20T08:08:51;0.50;99.90
57242;DHT22;43095;53.302;5.786;2022-11-20T08:11:18;0.60;99.90
57242;DHT22;43095;53.302;5.786;2022-11-20T08:14:04;0.80;99.90
57242;DHT22;43095;53.302;5.786;2022-11-20T08:16:41;0.70;99.90
57242;DHT22;43095;53.302;5.786;2022-11-20T08:19:09;0.80;99.90
57242;DHT22;43095;53.302;5.786;2022-11-20T08:21:36;0.80;99.90
57242;DHT22;43095;53.302;5.786;2022-11-20T08:24:05;0.90;99.90
57242;DHT22;43095;53.302;5.786;2022-11-20T08:26:32;0.90;99.90
57242;DHT22;43095;53.302;5.786;2022-11-20T08:29:00;0.90;99.90
57242;DHT22;43095;53.302;5.786;2022-11-20T08:31:27;1.00;99.90
57242;DHT22;43095;53.302;5.786;2022-11-20T08:33:54;1.10;99.90
57242;DHT22;43095;53.302;5.786;2022-11-20T08:36:23;1.20;99.90
57242;DHT22;43095;53.302;5.786;2022-11-20T08:38:52;1.20;99.90
57242;DHT22;43095;53.302;5.786;2022-11-20T08:41:20;1.40;99.90
57242;DHT22;43095;53.302;5.786;2022-11-20T08:43:51;1.30;99.90
57242;DHT22;43095;53.302;5.786;2022-11-20T08:46:19;1.40;99.90
57242;DHT22;43095;53.302;5.786;2022-11-20T08:48:46;1.50;99.90
57242;DHT22;43095;53.302;5.786;2022-11-20T08:51:13;1.50;99.90
57242;DHT22;43095;53.302;5.786;2022-11-20T08:53:40;1.80;99.90
57242;DHT22;43095;53.302;5.786;2022-11-20T08:56:08;1.60;99.90
57242;DHT22;43095;53.302;5.786;2022-11-20T08:58:38;1.70;99.90
57242;DHT22;43095;53.302;5.786;2022-11-20T09:01:26;1.80;99.90
57242;DHT22;43095;53.302;5.786;2022-11-20T09:03:55;1.80;99.90
57242;DHT22;43095;53.302;5.786;2022-11-20T09:06:26;1.90;99.90
57242;DHT22;43095;53.302;5.786;2022-11-20T09:08:54;2.00;99.90
57242;DHT22;43095;53.302;5.786;2022-11-20T09:11:21;2.00;99.90
57242;DHT22;43095;53.302;5.786;2022-11-20T09:13:49;2.00;99.90
57242;DHT22;43095;53.302;5.786;2022-11-20T09:16:16;2.10;99.90
57242;DHT22;43095;53.302;5.786;2022-11-20T09:18:43;2.00;99.90
57242;DHT22;43095;53.302;5.786;2022-11-20T09:21:12;2.00;99.90
57242;DHT22;43095;53.302;5.786;2022-11-20T09:23:40;2.00;99.90
57242;DHT22;43095;53.302;5.786;2022-11-20T09:26:10;2.00;99.90
57242;DHT22;43095;53.302;5.786;2022-11-20T09:28:38;2.10;99.90
57242;DHT22;43095;53.302;5.786;2022-11-20T09:31:09;2.10;99.90
57242;DHT22;43095;53.302;5.786;2022-11-20T09:33:40;2.10;99.90
57242;DHT22;43095;53.302;5.786;2022-11-20T09:36:07;2.20;99.90
57242;DHT22;43095;53.302;5.786;2022-11-20T09:38:35;2.20;99.90
57242;DHT22;43095;53.302;5.786;2022-11-20T09:41:04;2.30;99.90
57242;DHT22;43095;53.302;5.786;2022-11-20T09:47:08;2.30;99.90
57242;DHT22;43095;53.302;5.786;2022-11-20T09:55:14;2.60;99.90
57242;DHT22;43095;53.302;5.786;2022-11-20T09:57:45;2.60;99.90
57242;DHT22;43095;53.302;5.786;2022-11-20T10:00:15;2.60;99.90
57242;DHT22;43095;53.302;5.786;2022-11-20T10:05:31;2.70;99.90
57242;DHT22;43095;53.302;5.786;2022-11-20T10:08:30;2.70;99.90
57242;DHT22;43095;53.302;5.786;2022-11-20T10:16:50;2.90;99.90
57242;DHT22;43095;53.302;5.786;2022-11-20T10:19:29;3.00;99.90
57242;DHT22;43095;53.302;5.786;2022-11-20T10:24:55;3.10;99.90
57242;DHT22;43095;53.302;5.786;2022-11-20T10:30:02;3.20;99.90
57242;DHT22;43095;53.302;5.786;2022-11-20T10:32:45;3.30;99.90
57242;DHT22;43095;53.302;5.786;2022-11-20T10:37:44;3.20;99.90
57242;DHT22;43095;53.302;5.786;2022-11-20T10:42:57;3.40;99.90
57242;DHT22;43095;53.302;5.786;2022-11-20T10:45:36;3.50;99.90
57242;DHT22;43095;53.302;5.786;2022-11-20T10:48:09;3.40;99.90
57242;DHT22;43095;53.302;5.786;2022-11-20T10:50:44;3.30;99.90
57242;DHT22;43095;53.302;5.786;2022-11-20T10:53:27;3.30;99.90
57242;DHT22;43095;53.302;5.786;2022-11-20T10:56:31;3.50;99.90
57242;DHT22;43095;53.302;5.786;2022-11-20T11:01:42;3.50;99.90
57242;DHT22;43095;53.302;5.786;2022-11-20T11:07:12;3.60;99.90
57242;DHT22;43095;53.302;5.786;2022-11-20T11:09:45;3.60;99.90
57242;DHT22;43095;53.302;5.786;2022-11-20T11:12:14;3.60;99.90
57242;DHT22;43095;53.302;5.786;2022-11-20T11:14:49;3.80;99.90
57242;DHT22;43095;53.302;5.786;2022-11-20T11:19:59;3.80;99.90
57242;DHT22;43095;53.302;5.786;2022-11-20T11:22:29;3.90;99.90
57242;DHT22;43095;53.302;5.786;2022-11-20T11:24:57;3.80;99.90
57242;DHT22;43095;53.302;5.786;2022-11-20T11:27:24;4.10;99.90
57242;DHT22;43095;53.302;5.786;2022-11-20T11:30:12;3.90;99.90
57242;DHT22;43095;53.302;5.786;2022-11-20T11:32:40;4.00;99.90
57242;DHT22;43095;53.302;5.786;2022-11-20T11:35:23;4.10;99.90
57242;DHT22;43095;53.302;5.786;2022-11-20T11:37:51;4.10;99.90
57242;DHT22;43095;53.302;5.786;2022-11-20T11:40:22;3.90;99.90
57242;DHT22;43095;53.302;5.786;2022-11-20T11:42:55;4.00;99.90
57242;DHT22;43095;53.302;5.786;2022-11-20T11:45:23;4.10;99.90
57242;DHT22;43095;53.302;5.786;2022-11-20T11:47:51;4.10;99.90
57242;DHT22;43095;53.302;5.786;2022-11-20T11:50:24;4.10;99.90
57242;DHT22;43095;53.302;5.786;2022-11-20T11:53:16;4.10;99.90
57242;DHT22;43095;53.302;5.786;2022-11-20T11:56:04;4.10;99.90
57242;DHT22;43095;53.302;5.786;2022-11-20T11:58:48;4.10;99.90
57242;DHT22;43095;53.302;5.786;2022-11-20T12:01:36;4.10;99.90
57242;DHT22;43095;53.302;5.786;2022-11-20T12:04:21;4.00;99.90
57242;DHT22;43095;53.302;5.786;2022-11-20T12:06:57;4.10;99.90
57242;DHT22;43095;53.302;5.786;2022-11-20T12:09:33;4.00;99.90
57242;DHT22;43095;53.302;5.786;2022-11-20T12:12:08;4.00;99.90
57242;DHT22;43095;53.302;5.786;2022-11-20T12:14:39;4.00;99.90
57242;DHT22;43095;53.302;5.786;2022-11-20T12:17:11;4.00;99.90
57242;DHT22;43095;53.302;5.786;2022-11-20T12:19:39;4.00;99.90
57242;DHT22;43095;53.302;5.786;2022-11-20T12:22:22;4.00;99.90
57242;DHT22;43095;53.302;5.786;2022-11-20T12:25:09;4.10;99.90
57242;DHT22;43095;53.302;5.786;2022-11-20T12:27:47;4.10;99.90
57242;DHT22;43095;53.302;5.786;2022-11-20T12:30:18;4.10;99.90
57242;DHT22;43095;53.302;5.786;2022-11-20T12:33:10;4.10;99.90
57242;DHT22;43095;53.302;5.786;2022-11-20T13:00:07;4.00;99.90
57242;DHT22;43095;53.302;5.786;2022-11-20T13:05:15;3.90;99.90
57242;DHT22;43095;53.302;5.786;2022-11-20T13:07:44;3.80;99.90
57242;DHT22;43095;53.302;5.786;2022-11-20T13:10:33;3.80;99.90
57242;DHT22;43095;53.302;5.786;2022-11-20T13:15:51;3.80;99.90
57242;DHT22;43095;53.302;5.786;2022-11-20T13:18:21;3.80;99.90
57242;DHT22;43095;53.302;5.786;2022-11-20T13:20:48;3.80;99.90
57242;DHT22;43095;53.302;5.786;2022-11-20T13:23:27;3.80;99.90
57242;DHT22;43095;53.302;5.786;2022-11-20T13:26:06;3.80;99.90
57242;DHT22;43095;53.302;5.786;2022-11-20T13:28:40;3.80;99.90
57242;DHT22;43095;53.302;5.786;2022-11-20T13:31:33;3.90;99.90
57242;DHT22;43095;53.302;5.786;2022-11-20T13:34:02;3.90;99.90
57242;DHT22;43095;53.302;5.786;2022-11-20T13:36:30;3.90;99.90
57242;DHT22;43095;53.302;5.786;2022-11-20T13:38:59;3.90;99.90
57242;DHT22;43095;53.302;5.786;2022-11-20T13:41:32;3.90;99.90
57242;DHT22;43095;53.302;5.786;2022-11-20T13:46:54;3.90;99.90
57242;DHT22;43095;53.302;5.786;2022-11-20T13:49:29;3.90;99.90
57242;DHT22;43095;53.302;5.786;2022-11-20T13:52:08;3.90;99.90
57242;DHT22;43095;53.302;5.786;2022-11-20T13:55:11;3.80;99.90
57242;DHT22;43095;53.302;5.786;2022-11-20T14:00:13;3.80;99.90
57242;DHT22;43095;53.302;5.786;2022-11-20T14:02:42;3.70;99.90
57242;DHT22;43095;53.302;5.786;2022-11-20T14:05:21;3.70;99.90
57242;DHT22;43095;53.302;5.786;2022-11-20T14:07:50;3.70;99.90
57242;DHT22;43095;53.302;5.786;2022-11-20T14:10:26;3.70;99.90
57242;DHT22;43095;53.302;5.786;2022-11-20T14:13:09;3.80;99.90
57242;DHT22;43095;53.302;5.786;2022-11-20T14:15:36;3.70;99.90
57242;DHT22;43095;53.302;5.786;2022-11-20T14:18:19;3.60;99.90
57242;DHT22;43095;53.302;5.786;2022-11-20T14:20:48;3.60;99.90
57242;DHT22;43095;53.302;5.786;2022-11-20T14:23:26;3.60;99.90
57242;DHT22;43095;53.302;5.786;2022-11-20T14:25:56;3.60;99.90
57242;DHT22;43095;53.302;5.786;2022-11-20T14:28:31;3.60;99.90
57242;DHT22;43095;53.302;5.786;2022-11-20T14:30:58;3.60;99.90
57242;DHT22;43095;53.302;5.786;2022-11-20T14:33:26;3.60;99.90
57242;DHT22;43095;53.302;5.786;2022-11-20T14:35:56;3.60;99.90
57242;DHT22;43095;53.302;5.786;2022-11-20T14:38:28;3.50;99.90
57242;DHT22;43095;53.302;5.786;2022-11-20T14:41:14;3.50;99.90
57242;DHT22;43095;53.302;5.786;2022-11-20T14:43:51;3.40;99.90
57242;DHT22;43095;53.302;5.786;2022-11-20T14:46:19;3.50;99.90
57242;DHT22;43095;53.302;5.786;2022-11-20T14:48:50;3.50;99.90
57242;DHT22;43095;53.302;5.786;2022-11-20T14:51:39;3.50;99.90
57242;DHT22;43095;53.302;5.786;2022-11-20T14:54:14;3.50;99.90
57242;DHT22;43095;53.302;5.786;2022-11-20T14:56:42;3.50;99.90
57242;DHT22;43095;53.302;5.786;2022-11-20T14:59:09;3.50;99.90
57242;DHT22;43095;53.302;5.786;2022-11-20T15:01:36;3.50;99.90
57242;DHT22;43095;53.302;5.786;2022-11-20T15:04:10;3.50;99.90
57242;DHT22;43095;53.302;5.786;2022-11-20T15:06:48;3.50;99.90
57242;DHT22;43095;53.302;5.786;2022-11-20T15:09:15;3.40;99.90
57242;DHT22;43095;53.302;5.786;2022-11-20T15:11:59;3.40;99.90
57242;DHT22;43095;53.302;5.786;2022-11-20T15:14:28;3.40;99.90
57242;DHT22;43095;53.302;5.786;2022-11-20T15:16:56;3.30;99.90
57242;DHT22;43095;53.302;5.786;2022-11-20T15:19:25;3.20;99.90
57242;DHT22;43095;53.302;5.786;2022-11-20T15:21:53;3.20;99.90
57242;DHT22;43095;53.302;5.786;2022-11-20T15:24:20;3.20;99.90
57242;DHT22;43095;53.302;5.786;2022-11-20T15:26:48;3.10;99.90
57242;DHT22;43095;53.302;5.786;2022-11-20T15:29:16;3.10;99.90
57242;DHT22;43095;53.302;5.786;2022-11-20T15:31:47;3.10;99.90
57242;DHT22;43095;53.302;5.786;2022-11-20T15:34:15;3.10;99.90
57242;DHT22;43095;53.302;5.786;2022-11-20T15:36:42;3.00;99.90
57242;DHT22;43095;53.302;5.786;2022-11-20T15:39:10;3.00;99.90
57242;DHT22;43095;53.302;5.786;2022-11-20T15:41:38;3.00;99.90
57242;DHT22;43095;53.302;5.786;2022-11-20T15:44:06;3.00;99.90
57242;DHT22;43095;53.302;5.786;2022-11-20T15:46:36;3.00;99.90
57242;DHT22;43095;53.302;5.786;2022-11-20T15:49:06;3.00;99.90
57242;DHT22;43095;53.302;5.786;2022-11-20T15:51:48;3.10;99.90
57242;DHT22;43095;53.302;5.786;2022-11-20T15:54:19;2.90;99.90
57242;DHT22;43095;53.302;5.786;2022-11-20T15:56:48;3.00;99.90
57242;DHT22;43095;53.302;5.786;2022-11-20T15:59:16;2.90;99.90
57242;DHT22;43095;53.302;5.786;2022-11-20T16:01:44;2.80;99.90
57242;DHT22;43095;53.302;5.786;2022-11-20T16:04:12;2.90;99.90
57242;DHT22;43095;53.302;5.786;2022-11-20T16:06:40;2.80;99.90
57242;DHT22;43095;53.302;5.786;2022-11-20T16:09:08;2.80;99.90
57242;DHT22;43095;53.302;5.786;2022-11-20T16:11:35;2.80;99.90
57242;DHT22;43095;53.302;5.786;2022-11-20T16:14:06;2.80;99.90
57242;DHT22;43095;53.302;5.786;2022-11-20T16:16:55;2.80;99.90
57242;DHT22;43095;53.302;5.786;2022-11-20T16:19:22;2.70;99.90
57242;DHT22;43095;53.302;5.786;2022-11-20T16:21:49;2.70;99.90
57242;DHT22;43095;53.302;5.786;2022-11-20T16:24:16;2.70;99.90
57242;DHT22;43095;53.302;5.786;2022-11-20T16:26:43;2.70;99.90
57242;DHT22;43095;53.302;5.786;2022-11-20T16:29:10;2.70;99.90
57242;DHT22;43095;53.302;5.786;2022-11-20T16:31:38;2.70;99.90
57242;DHT22;43095;53.302;5.786;2022-11-20T16:34:07;2.70;99.90
57242;DHT22;43095;53.302;5.786;2022-11-20T16:36:42;2.80;99.90
57242;DHT22;43095;53.302;5.786;2022-11-20T16:39:11;2.80;99.90
57242;DHT22;43095;53.302;5.786;2022-11-20T16:41:39;2.70;99.90
57242;DHT22;43095;53.302;5.786;2022-11-20T16:44:08;2.70;99.90
57242;DHT22;43095;53.302;5.786;2022-11-20T16:46:36;2.70;99.90
57242;DHT22;43095;53.302;5.786;2022-11-20T16:49:05;2.70;99.90
57242;DHT22;43095;53.302;5.786;2022-11-20T16:51:36;2.70;99.90
57242;DHT22;43095;53.302;5.786;2022-11-20T16:54:07;2.70;99.90
57242;DHT22;43095;53.302;5.786;2022-11-20T16:56:35;2.60;99.90
57242;DHT22;43095;53.302;5.786;2022-11-20T16:59:03;2.70;99.90
57242;DHT22;43095;53.302;5.786;2022-11-20T17:01:31;2.70;99.90
57242;DHT22;43095;53.302;5.786;2022-11-20T17:04:03;2.70;99.90
57242;DHT22;43095;53.302;5.786;2022-11-20T17:06:39;2.70;99.90
57242;DHT22;43095;53.302;5.786;2022-11-20T17:09:07;2.70;99.90
57242;DHT22;43095;53.302;5.786;2022-11-20T17:11:36;2.70;99.90
57242;DHT22;43095;53.302;5.786;2022-11-20T17:14:03;2.70;99.90
57242;DHT22;43095;53.302;5.786;2022-11-20T17:16:34;2.70;99.90
57242;DHT22;43095;53.302;5.786;2022-11-20T17:19:03;2.80;99.90
57242;DHT22;43095;53.302;5.786;2022-11-20T17:21:32;2.70;99.90
57242;DHT22;43095;53.302;5.786;2022-11-20T17:24:04;2.80;99.90